Time;durP1;ratioP1;P1;durP2;ratioP2;P2;SDS_P1;SDS_P2;PMS_P1;PMS_P2;Temp;Humidity;BMP_temperature;BMP_pressure;BME280_temperature;BME280_humidity;BME280_pressure;Samples;Min_cycle;Max_cycle;Signal;HPM_P1;HPM_P2
2021/09/20 08:40:10;;;;;;;15.80;9.63;;;19.20;99.90;;;;;;14277665;22;15147728;-68
2021/09/20 08:46:03;;;;;;;17.70;9.70;;;19.40;99.90;;;;;;14885756;22;20031;-68
2021/09/20 08:51:54;;;;;;;18.70;9.80;;;19.40;99.90;;;;;;14911744;22;20087;-68
2021/09/20 08:57:43;;;;;;;15.88;8.57;;;19.40;99.90;;;;;;14875211;22;20020;-68
2021/09/20 09:03:32;;;;;;;14.35;9.10;;;19.70;99.90;;;;;;14874492;22;20039;-68
2021/09/20 09:09:26;;;;;;;15.90;9.48;;;19.80;99.90;;;;;;14903912;22;20481;-69
2021/09/20 09:15:16;;;;;;;13.32;8.80;;;19.90;99.90;;;;;;14948063;22;20051;-68
2021/09/20 09:21:24;;;;;;;17.38;9.00;;;20.10;99.90;;;;;;14947773;22;20063;-69
2021/09/20 09:27:11;;;;;;;15.65;9.82;;;19.90;99.90;;;;;;14937512;22;20034;-68
2021/09/20 09:33:23;;;;;;;18.15;9.85;;;19.80;99.90;;;;;;14882730;22;20100;-68
2021/09/20 09:39:11;;;;;;;23.63;10.67;;;19.70;99.90;;;;;;14823308;22;20028;-75
2021/09/20 09:45:13;;;;;;;18.00;9.65;;;19.70;99.90;;;;;;14836282;22;20130;-74
2021/09/20 09:51:04;;;;;;;17.80;9.77;;;19.50;99.90;;;;;;14835994;22;20031;-76
2021/09/20 09:56:51;;;;;;;18.40;10.27;;;19.70;99.90;;;;;;14834356;22;20369;-79
2021/09/20 10:02:41;;;;;;;18.17;9.32;;;19.90;99.90;;;;;;14837946;22;20028;-80
2021/09/20 10:08:29;;;;;;;14.50;9.10;;;19.80;99.90;;;;;;14836558;22;20027;-79
2021/09/20 10:14:17;;;;;;;15.00;8.80;;;19.90;99.90;;;;;;14839279;22;20476;-79
2021/09/20 10:20:06;;;;;;;15.13;8.82;;;19.90;99.90;;;;;;14842526;22;20028;-79
2021/09/20 10:25:54;;;;;;;15.65;10.80;;;19.90;99.90;;;;;;14854005;22;20497;-78
2021/09/20 10:31:43;;;;;;;18.90;10.30;;;19.90;99.90;;;;;;14842341;22;20030;-79
2021/09/20 10:37:34;;;;;;;15.00;9.40;;;19.90;99.90;;;;;;14818475;22;20487;-81
2021/09/20 10:43:26;;;;;;;14.35;9.70;;;20.10;99.90;;;;;;14842801;23;20032;-81
2021/09/20 10:49:19;;;;;;;18.00;10.05;;;20.10;99.90;;;;;;14838359;23;20028;-78
2021/09/20 10:55:09;;;;;;;19.67;9.40;;;20.20;99.90;;;;;;14840789;23;20024;-79
2021/09/20 11:01:31;;;;;;;15.07;9.85;;;20.00;99.90;;;;;;14842325;23;20032;-78
2021/09/20 11:07:21;;;;;;;17.70;9.93;;;20.00;99.90;;;;;;14836417;23;20069;-80
2021/09/20 11:13:08;;;;;;;14.25;9.23;;;19.90;99.90;;;;;;14835656;23;20024;-78
2021/09/20 11:18:56;;;;;;;14.57;9.30;;;20.20;99.90;;;;;;14844350;23;20169;-81
2021/09/20 11:24:46;;;;;;;14.73;8.60;;;20.30;99.90;;;;;;14849701;23;20103;-78
2021/09/20 11:30:33;;;;;;;18.20;9.10;;;20.50;99.90;;;;;;14849850;23;20103;-79
2021/09/20 11:36:26;;;;;;;14.18;8.20;;;20.40;99.90;;;;;;14844218;22;20532;-79
2021/09/20 11:42:15;;;;;;;13.32;7.53;;;20.50;99.90;;;;;;14841412;23;20032;-79
2021/09/20 11:48:04;;;;;;;13.85;8.20;;;20.70;99.90;;;;;;14845671;23;20034;-79
2021/09/20 11:53:52;;;;;;;14.23;8.63;;;20.90;99.90;;;;;;14842650;23;20412;-79
2021/09/20 11:59:40;;;;;;;15.07;7.85;;;20.70;99.90;;;;;;14844875;23;20028;-80
2021/09/20 12:05:28;;;;;;;18.35;8.57;;;20.80;99.90;;;;;;14845646;23;20052;-79
2021/09/20 12:11:22;;;;;;;18.75;8.88;;;20.80;99.90;;;;;;14844853;23;20028;-79
2021/09/20 12:17:09;;;;;;;11.20;7.45;;;20.80;99.90;;;;;;14842909;23;20480;-79
2021/09/20 12:22:57;;;;;;;11.13;7.85;;;21.00;99.90;;;;;;14841199;23;20107;-79
2021/09/20 12:28:52;;;;;;;10.25;6.63;;;21.10;99.90;;;;;;14841802;23;20024;-79
2021/09/20 12:34:39;;;;;;;10.35;6.53;;;21.10;99.90;;;;;;14843596;22;20365;-79
2021/09/20 12:40:26;;;;;;;10.07;6.10;;;21.10;99.90;;;;;;14844233;23;20026;-80
2021/09/20 12:46:17;;;;;;;12.10;6.32;;;21.20;99.90;;;;;;14841212;23;20481;-80
2021/09/20 12:52:05;;;;;;;9.20;5.47;;;21.10;99.90;;;;;;14800214;23;20101;-80
2021/09/20 12:57:54;;;;;;;8.05;5.13;;;21.50;99.90;;;;;;14844187;23;20481;-80
2021/09/20 13:03:42;;;;;;;15.18;5.35;;;21.70;99.90;;;;;;14833452;23;20028;-80
2021/09/20 13:09:29;;;;;;;10.25;4.55;;;22.00;99.90;;;;;;14849198;23;20024;-80
2021/09/20 13:15:19;;;;;;;11.20;5.40;;;22.50;99.90;;;;;;14846668;23;20107;-79
2021/09/20 13:21:21;;;;;;;10.48;6.00;;;22.60;99.90;;;;;;14846389;23;20028;-79
2021/09/20 13:27:18;;;;;;;7.55;5.00;;;22.70;99.90;;;;;;14845797;23;20038;-80
2021/09/20 13:33:05;;;;;;;10.70;4.65;;;23.00;99.90;;;;;;14848620;23;20027;-79
2021/09/20 13:38:54;;;;;;;6.40;4.43;;;23.40;99.90;;;;;;14846382;22;20504;-80
2021/09/20 13:44:46;;;;;;;5.57;4.70;;;23.50;99.90;;;;;;14847943;23;20020;-80
2021/09/20 13:50:33;;;;;;;9.73;4.20;;;22.90;99.90;;;;;;14847849;23;20094;-80
2021/09/20 13:56:21;;;;;;;6.90;3.88;;;22.40;99.90;;;;;;14846738;23;20111;-80
2021/09/20 14:02:10;;;;;;;3.85;3.40;;;22.70;99.90;;;;;;14846887;23;20030;-77
2021/09/20 14:07:57;;;;;;;4.30;3.42;;;22.80;99.90;;;;;;14845048;23;20028;-78
2021/09/20 14:13:45;;;;;;;5.00;3.58;;;22.90;99.90;;;;;;14848123;23;20020;-78
2021/09/20 14:19:32;;;;;;;7.22;3.50;;;23.10;99.90;;;;;;14847932;23;20035;-78
2021/09/20 14:25:20;;;;;;;3.20;2.80;;;22.90;99.90;;;;;;14847001;23;20024;-78
2021/09/20 14:31:08;;;;;;;3.88;3.00;;;23.10;99.90;;;;;;14845475;23;20032;-79
2021/09/20 14:36:56;;;;;;;6.22;2.67;;;23.40;99.90;;;;;;14847609;22;20031;-78
2021/09/20 14:42:44;;;;;;;9.52;2.88;;;23.40;99.90;;;;;;14802662;23;20422;-79
2021/09/20 14:48:32;;;;;;;3.10;2.80;;;23.00;99.90;;;;;;14844104;23;20024;-78
2021/09/20 14:54:19;;;;;;;5.93;3.33;;;22.60;99.90;;;;;;14840696;23;20396;-79
2021/09/20 15:00:08;;;;;;;5.50;3.47;;;22.10;99.90;;;;;;14839708;23;20031;-78
2021/09/20 15:05:57;;;;;;;9.52;4.65;;;21.70;99.90;;;;;;14841941;23;20346;-79
2021/09/20 15:11:44;;;;;;;7.70;4.93;;;21.20;99.90;;;;;;14840657;23;20026;-80
2021/09/20 15:17:31;;;;;;;9.40;5.63;;;21.20;99.90;;;;;;14842300;23;20035;-79
2021/09/20 15:23:21;;;;;;;9.07;5.55;;;21.30;99.90;;;;;;14841031;23;20679;-79
2021/09/20 15:29:07;;;;;;;8.63;5.60;;;21.50;99.90;;;;;;14800829;23;20051;-79
2021/09/20 15:34:54;;;;;;;12.88;5.82;;;21.70;99.90;;;;;;14817006;22;20031;-79
2021/09/20 15:40:43;;;;;;;7.88;5.00;;;22.00;99.90;;;;;;14842421;23;20032;-79
2021/09/20 15:46:31;;;;;;;8.02;5.13;;;22.40;99.90;;;;;;14842237;23;20046;-79
2021/09/20 15:52:18;;;;;;;6.82;4.80;;;22.70;99.90;;;;;;14839903;23;20024;-79
2021/09/20 15:58:06;;;;;;;5.43;3.80;;;22.70;99.90;;;;;;14841157;23;20034;-79
2021/09/20 16:03:53;;;;;;;9.07;4.70;;;22.60;99.90;;;;;;14845171;23;20034;-79
2021/09/20 16:09:42;;;;;;;5.20;4.57;;;22.50;99.90;;;;;;14842626;23;20028;-80
2021/09/20 16:15:31;;;;;;;6.18;3.53;;;22.30;99.90;;;;;;14842619;23;20085;-78
2021/09/20 16:21:18;;;;;;;3.50;3.03;;;22.00;99.90;;;;;;14842636;23;20028;-78
2021/09/20 16:27:05;;;;;;;5.93;3.45;;;21.60;99.90;;;;;;14842151;23;20102;-79
2021/09/20 16:32:53;;;;;;;3.63;3.10;;;21.50;99.90;;;;;;14841451;23;20028;-79
2021/09/20 16:38:40;;;;;;;4.18;3.03;;;21.50;99.90;;;;;;14838200;22;20028;-80
2021/09/20 16:44:27;;;;;;;3.55;3.10;;;21.20;99.90;;;;;;14845676;23;20035;-78
2021/09/20 16:50:18;;;;;;;9.38;3.53;;;20.90;99.90;;;;;;14841562;23;20024;-77
2021/09/20 16:56:07;;;;;;;4.88;3.00;;;20.90;99.90;;;;;;14847834;23;20031;-78
2021/09/20 17:01:56;;;;;;;5.97;4.15;;;20.80;99.90;;;;;;14846292;23;20087;-78
2021/09/20 17:07:44;;;;;;;5.80;3.90;;;20.80;99.90;;;;;;14845013;23;20035;-79
2021/09/20 17:13:32;;;;;;;4.57;3.28;;;20.90;99.90;;;;;;14846019;23;20024;-78
2021/09/20 17:19:20;;;;;;;4.53;4.10;;;20.80;99.90;;;;;;14814705;23;20356;-78
2021/09/20 17:25:10;;;;;;;6.47;3.95;;;20.80;99.90;;;;;;14827199;23;20020;-79
2021/09/20 17:30:58;;;;;;;138.45;91.75;;;20.80;99.90;;;;;;14848759;23;20034;-80
2021/09/20 17:36:45;;;;;;;8.60;4.60;;;20.80;99.90;;;;;;14844778;22;20048;-76
2021/09/20 17:42:34;;;;;;;11.98;7.47;;;20.80;99.90;;;;;;14843967;23;20111;-76
2021/09/20 17:48:21;;;;;;;7.47;5.28;;;20.80;99.90;;;;;;14841680;23;20020;-79
2021/09/20 17:54:08;;;;;;;8.07;5.97;;;20.30;99.90;;;;;;14851192;23;20030;-78
2021/09/20 17:59:57;;;;;;;7.28;5.35;;;20.10;99.90;;;;;;14829865;23;20024;-79
2021/09/20 18:05:44;;;;;;;22.17;14.68;;;20.10;99.90;;;;;;14843371;23;20030;-80
2021/09/20 18:11:31;;;;;;;11.05;6.93;;;19.90;99.90;;;;;;14843316;23;20028;-79
2021/09/20 18:17:19;;;;;;;6.63;5.93;;;20.00;99.90;;;;;;14829349;23;20570;-83
2021/09/20 18:23:06;;;;;;;15.68;12.52;;;20.20;99.90;;;;;;14846066;23;20031;-81
2021/09/20 18:28:53;;;;;;;20.15;13.85;;;20.30;99.90;;;;;;14845384;23;20059;-82
2021/09/20 18:34:42;;;;;;;18.10;11.65;;;20.50;99.90;;;;;;14842660;22;20059;-79
2021/09/20 18:40:29;;;;;;;13.02;7.88;;;20.50;99.90;;;;;;14862802;23;20080;-80
2021/09/20 18:46:16;;;;;;;10.55;7.10;;;20.50;99.90;;;;;;14882115;23;20360;-81
2021/09/20 18:52:04;;;;;;;10.20;7.07;;;20.40;99.90;;;;;;14872623;23;20059;-77
2021/09/20 18:57:52;;;;;;;11.65;6.72;;;20.40;99.90;;;;;;14839962;23;20361;-81
2021/09/20 19:03:38;;;;;;;14.32;12.00;;;20.50;99.90;;;;;;14849499;23;20107;-82
2021/09/20 19:09:31;;;;;;;18.13;12.48;;;20.50;99.90;;;;;;14848315;23;20123;-84
2021/09/20 19:15:19;;;;;;;13.75;8.40;;;20.50;99.90;;;;;;14849781;23;20024;-81
2021/09/20 19:21:09;;;;;;;21.40;14.95;;;20.50;99.90;;;;;;14846247;23;20083;-80
2021/09/20 19:26:57;;;;;;;19.45;13.02;;;20.40;99.90;;;;;;14804951;23;20035;-82
2021/09/20 19:32:45;;;;;;;12.93;8.75;;;20.40;99.90;;;;;;14841442;23;20028;-77
2021/09/20 19:38:34;;;;;;;17.67;11.35;;;20.40;99.90;;;;;;14833016;22;20032;-76
2021/09/20 19:44:23;;;;;;;11.93;8.90;;;20.40;99.90;;;;;;14840737;23;20028;-82
2021/09/20 19:50:10;;;;;;;16.20;8.88;;;20.40;99.90;;;;;;14841333;23;20028;-80
2021/09/20 19:55:58;;;;;;;26.42;15.65;;;20.30;99.90;;;;;;14843727;23;20342;-81
2021/09/20 20:01:46;;;;;;;35.22;19.13;;;20.20;99.90;;;;;;14841572;23;20031;-82
